createdAt,value
2022-07-29T00:01:04.785Z,9.70
2022-07-29T00:03:31.493Z,13.37
2022-07-29T00:05:58.107Z,9.60
2022-07-29T00:08:25.915Z,14.48
2022-07-29T00:10:52.432Z,11.52
2022-07-29T00:13:18.926Z,13.32
2022-07-29T00:15:59.004Z,13.97
2022-07-29T00:18:31.102Z,14.63
2022-07-29T00:20:57.721Z,12.95
2022-07-29T00:23:24.232Z,10.63
2022-07-29T00:25:50.733Z,10.55
2022-07-29T00:28:18.435Z,11.90
2022-07-29T00:30:44.975Z,9.38
2022-07-29T00:33:11.472Z,10.77
2022-07-29T00:35:48.861Z,12.27
2022-07-29T00:38:17.125Z,11.40
2022-07-29T00:40:44.226Z,11.80
2022-07-29T00:43:11.965Z,13.25
2022-07-29T00:45:38.502Z,10.70
2022-07-29T00:48:05.851Z,10.55
2022-07-29T00:50:33.248Z,10.35
2022-07-29T00:52:59.994Z,10.47
2022-07-29T00:55:26.612Z,8.73
2022-07-29T00:57:53.850Z,10.27
2022-07-29T01:00:23.733Z,7.45
2022-07-29T01:02:50.444Z,8.38
2022-07-29T01:05:21.598Z,11.43
2022-07-29T01:07:50.599Z,8.38
2022-07-29T01:10:17.268Z,8.35
2022-07-29T01:12:47.102Z,8.43
2022-07-29T01:15:13.811Z,9.43
2022-07-29T01:17:52.685Z,6.83
2022-07-29T01:20:59.655Z,10.80
2022-07-29T01:23:53.559Z,8.70
2022-07-29T01:26:43.622Z,12.27
2022-07-29T01:29:23.713Z,10.95
2022-07-29T01:31:58.990Z,10.23
2022-07-29T01:34:31.189Z,10.88
2022-07-29T01:37:18.771Z,9.30
2022-07-29T01:39:47.472Z,8.23
2022-07-29T01:42:37.161Z,6.50
2022-07-29T01:45:23.133Z,10.27
2022-07-29T01:48:01.918Z,9.25
2022-07-29T01:51:12.468Z,8.35
2022-07-29T01:53:49.123Z,8.98
2022-07-29T01:56:17.951Z,9.15
2022-07-29T01:58:45.029Z,12.13
2022-07-29T02:01:12.263Z,7.68
2022-07-29T02:03:39.358Z,11.32
2022-07-29T02:06:07.604Z,8.43
2022-07-29T02:08:34.446Z,9.20
2022-07-29T02:11:01.726Z,9.37
2022-07-29T02:13:30.249Z,8.63
2022-07-29T02:15:58.559Z,10.45
2022-07-29T02:18:26.582Z,9.85
2022-07-29T02:20:55.229Z,9.43
2022-07-29T02:23:24.116Z,10.07
2022-07-29T02:25:54.616Z,8.65
2022-07-29T02:28:23.126Z,8.82
2022-07-29T02:30:51.554Z,8.13
2022-07-29T02:33:20.502Z,9.43
2022-07-29T02:35:48.323Z,8.57
2022-07-29T02:38:35.422Z,11.35
2022-07-29T02:41:05.481Z,11.23
2022-07-29T02:43:32.778Z,7.40
2022-07-29T02:46:00.092Z,9.85
2022-07-29T02:48:34.197Z,9.53
2022-07-29T02:51:07.285Z,9.48
2022-07-29T02:53:35.585Z,9.27
2022-07-29T02:56:12.110Z,8.05
2022-07-29T02:58:41.824Z,9.45
2022-07-29T03:01:21.582Z,8.53
2022-07-29T03:03:49.894Z,9.32
2022-07-29T03:06:28.289Z,9.13
2022-07-29T03:09:09.065Z,11.23
2022-07-29T03:11:49.198Z,10.27
2022-07-29T03:14:19.307Z,9.87
2022-07-29T03:16:46.315Z,12.65
2022-07-29T03:19:12.965Z,10.52
2022-07-29T03:21:39.878Z,11.77
2022-07-29T03:24:10.272Z,11.13
2022-07-29T03:26:37.430Z,11.73
2022-07-29T03:29:03.944Z,8.95
2022-07-29T03:31:30.646Z,8.98
2022-07-29T03:33:58.435Z,9.82
2022-07-29T03:36:25.761Z,11.13
2022-07-29T03:38:52.808Z,8.23
2022-07-29T03:41:22.319Z,13.30
2022-07-29T03:43:50.299Z,10.90
2022-07-29T03:46:18.463Z,9.07
2022-07-29T03:48:47.936Z,10.68
2022-07-29T03:51:14.604Z,9.50
2022-07-29T03:53:41.394Z,11.18
2022-07-29T03:56:09.079Z,9.98
2022-07-29T03:58:35.652Z,10.60
2022-07-29T04:01:02.262Z,10.70
2022-07-29T04:03:28.843Z,11.80
2022-07-29T04:06:03.656Z,11.13
2022-07-29T04:08:30.356Z,10.93
2022-07-29T04:10:56.920Z,13.00
2022-07-29T04:13:23.503Z,8.48
2022-07-29T04:15:50.049Z,10.57
2022-07-29T04:18:16.596Z,8.75
2022-07-29T04:20:43.121Z,9.35
2022-07-29T04:23:09.593Z,12.50
2022-07-29T04:25:41.456Z,9.15
2022-07-29T04:28:08.772Z,9.27
2022-07-29T04:30:37.993Z,12.90
2022-07-29T04:33:06.199Z,10.30
2022-07-29T04:35:38.570Z,10.68
2022-07-29T04:38:15.900Z,11.88
2022-07-29T04:40:43.919Z,10.07
2022-07-29T04:43:10.494Z,10.35
2022-07-29T04:45:39.079Z,10.15
2022-07-29T04:48:05.886Z,11.88
2022-07-29T04:50:32.809Z,7.38
2022-07-29T04:52:59.495Z,7.97
2022-07-29T04:55:26.473Z,9.32
2022-07-29T04:57:53.288Z,7.70
2022-07-29T05:00:19.771Z,6.90
2022-07-29T05:02:46.305Z,4.28
2022-07-29T05:05:12.872Z,5.97
2022-07-29T05:07:41.741Z,4.90
2022-07-29T05:10:09.045Z,5.07
2022-07-29T05:12:35.597Z,4.57
2022-07-29T05:15:02.055Z,5.78
2022-07-29T05:17:28.695Z,4.43
2022-07-29T05:19:55.261Z,5.53
2022-07-29T05:22:22.109Z,4.82
2022-07-29T05:24:51.795Z,4.85
2022-07-29T05:27:18.546Z,4.38
2022-07-29T05:29:45.948Z,5.30
2022-07-29T05:32:13.646Z,4.22
2022-07-29T05:34:50.336Z,7.70
2022-07-29T05:37:19.585Z,6.25
2022-07-29T05:39:49.126Z,5.32
2022-07-29T05:42:17.481Z,6.30
2022-07-29T05:44:44.099Z,4.40
2022-07-29T05:47:10.680Z,3.42
2022-07-29T05:49:37.297Z,4.78
2022-07-29T05:52:05.550Z,5.55
2022-07-29T05:54:32.069Z,4.30
2022-07-29T05:56:58.558Z,5.75
2022-07-29T05:59:30.161Z,3.30
2022-07-29T06:01:59.136Z,7.07
2022-07-29T06:04:25.803Z,4.20
2022-07-29T06:06:52.470Z,3.33
2022-07-29T06:09:18.984Z,5.45
2022-07-29T06:11:45.752Z,1.92
2022-07-29T06:14:12.322Z,7.47
2022-07-29T06:16:38.979Z,2.15
2022-07-29T06:19:06.952Z,3.97
2022-07-29T06:21:34.531Z,6.72
2022-07-29T06:24:05.701Z,2.55
2022-07-29T06:26:35.276Z,3.95
2022-07-29T06:29:06.461Z,5.30
2022-07-29T06:31:34.540Z,2.20
2022-07-29T06:34:01.193Z,2.40
2022-07-29T06:36:28.823Z,3.53
2022-07-29T06:38:55.418Z,1.67
2022-07-29T06:41:24.052Z,2.55
2022-07-29T06:43:54.567Z,4.73
2022-07-29T06:46:25.040Z,3.28
2022-07-29T06:48:52.925Z,1.20
2022-07-29T06:51:25.192Z,2.05
2022-07-29T06:54:00.094Z,2.22
2022-07-29T06:56:38.573Z,2.47
2022-07-29T06:59:10.524Z,3.28
2022-07-29T07:01:40.975Z,2.85
2022-07-29T07:04:09.607Z,5.97
2022-07-29T07:06:39.923Z,3.35
2022-07-29T07:09:06.580Z,2.83
2022-07-29T07:11:33.252Z,4.28
2022-07-29T07:14:03.446Z,2.13
2022-07-29T07:16:30.835Z,2.88
2022-07-29T07:18:57.614Z,5.53
2022-07-29T07:21:24.188Z,5.27
2022-07-29T07:23:50.670Z,2.72
2022-07-29T07:26:17.161Z,4.47
2022-07-29T07:28:45.772Z,2.90
2022-07-29T07:31:12.740Z,2.88
2022-07-29T07:33:40.183Z,3.37
2022-07-29T07:36:06.789Z,7.13
2022-07-29T07:38:33.348Z,2.00
2022-07-29T07:41:00.243Z,2.40
2022-07-29T07:43:27.113Z,6.75
2022-07-29T07:45:56.154Z,4.53
2022-07-29T07:48:22.879Z,2.13
2022-07-29T07:50:50.381Z,7.30
2022-07-29T07:53:17.313Z,6.22
2022-07-29T07:58:33.364Z,1.47
2022-07-29T08:01:07.999Z,3.53
2022-07-29T08:03:34.620Z,6.15
2022-07-29T08:06:01.314Z,6.18
2022-07-29T08:08:27.872Z,2.22
2022-07-29T08:10:54.552Z,3.60
2022-07-29T08:13:23.596Z,1.45
2022-07-29T08:16:14.332Z,2.33
2022-07-29T08:18:45.287Z,1.50
2022-07-29T08:21:16.382Z,1.95
2022-07-29T08:23:58.700Z,1.53
2022-07-29T08:26:26.956Z,1.75
2022-07-29T08:28:55.989Z,2.75
2022-07-29T08:31:22.661Z,1.77
2022-07-29T08:33:49.286Z,0.85
2022-07-29T08:36:15.835Z,0.60
2022-07-29T08:38:42.333Z,1.98
2022-07-29T08:41:10.237Z,0.90
2022-07-29T08:43:38.700Z,1.77
2022-07-29T08:46:05.278Z,1.75
2022-07-29T08:48:32.156Z,1.27
2022-07-29T08:50:58.880Z,1.27
2022-07-29T08:53:27.972Z,3.28
2022-07-29T08:56:04.714Z,3.25
2022-07-29T08:58:36.535Z,2.05
2022-07-29T09:01:04.391Z,1.10
2022-07-29T09:03:36.654Z,1.67
2022-07-29T09:06:06.830Z,2.03
2022-07-29T09:08:34.160Z,0.75
2022-07-29T09:11:03.953Z,1.77
2022-07-29T09:13:31.926Z,2.43
2022-07-29T09:15:58.660Z,0.85
2022-07-29T09:18:38.674Z,2.63
2022-07-29T09:21:28.632Z,1.63
2022-07-29T09:24:07.867Z,1.10
2022-07-29T09:26:42.617Z,3.20
2022-07-29T09:29:10.479Z,1.73
2022-07-29T09:31:39.264Z,3.55
2022-07-29T09:34:08.597Z,4.22
2022-07-29T09:36:42.430Z,4.93
2022-07-29T09:39:13.706Z,4.97
2022-07-29T09:41:56.214Z,1.58
2022-07-29T09:44:24.149Z,1.27
2022-07-29T09:46:59.291Z,4.57
2022-07-29T09:49:26.848Z,2.35
2022-07-29T09:52:09.999Z,4.77
2022-07-29T09:54:39.937Z,3.30
2022-07-29T09:57:13.544Z,2.63
2022-07-29T09:59:50.282Z,3.38
2022-07-29T10:02:23.961Z,3.55
2022-07-29T10:04:50.766Z,3.33
2022-07-29T10:07:17.249Z,1.38
2022-07-29T10:09:59.736Z,3.63
2022-07-29T10:12:31.319Z,9.82
2022-07-29T10:14:57.890Z,3.05
2022-07-29T10:17:27.153Z,4.40
2022-07-29T10:19:53.797Z,8.00
2022-07-29T10:22:43.617Z,20.15
2022-07-29T10:25:08.032Z,3.97
2022-07-29T10:27:36.261Z,5.65
2022-07-29T10:30:05.645Z,3.40
2022-07-29T10:32:43.170Z,2.60
2022-07-29T10:35:22.559Z,3.53
2022-07-29T10:38:16.528Z,4.75
2022-07-29T10:41:02.595Z,4.50
2022-07-29T10:43:37.515Z,1.90
2022-07-29T10:46:07.405Z,3.20
2022-07-29T10:48:34.468Z,1.80
2022-07-29T10:51:06.959Z,1.80
2022-07-29T10:53:53.501Z,1.75
2022-07-29T10:56:32.046Z,4.17
2022-07-29T11:00:06.065Z,2.67
2022-07-29T11:02:41.954Z,3.55
2022-07-29T11:05:14.678Z,15.18
2022-07-29T11:08:26.286Z,16.15
2022-07-29T11:11:17.407Z,2.03
2022-07-29T11:13:49.067Z,4.00
2022-07-29T11:16:16.384Z,2.05
2022-07-29T11:19:11.352Z,1.50
2022-07-29T11:21:53.393Z,3.08
2022-07-29T11:24:28.696Z,3.40
2022-07-29T11:27:19.914Z,4.95
2022-07-29T11:32:49.589Z,4.32
2022-07-29T11:35:37.058Z,0.80
2022-07-29T11:38:31.698Z,1.47
2022-07-29T11:41:20.988Z,3.33
2022-07-29T11:43:55.954Z,3.50
2022-07-29T11:46:49.898Z,1.98
2022-07-29T11:49:32.325Z,1.40
2022-07-29T11:52:02.836Z,3.40
2022-07-29T11:54:52.495Z,4.03
2022-07-29T11:57:22.224Z,2.42
2022-07-29T11:59:49.041Z,1.38
2022-07-29T12:05:10.399Z,4.23
2022-07-29T12:07:39.247Z,2.33
2022-07-29T12:10:11.477Z,1.90
2022-07-29T12:12:53.199Z,0.73
2022-07-29T12:15:22.358Z,1.40
2022-07-29T12:17:49.428Z,1.53
2022-07-29T12:20:48.140Z,1.25
2022-07-29T12:23:16.212Z,4.00
2022-07-29T12:25:49.808Z,2.55
2022-07-29T12:28:26.873Z,5.25
2022-07-29T12:30:54.408Z,3.47
2022-07-29T12:33:28.442Z,3.50
2022-07-29T12:36:06.999Z,5.03
2022-07-29T12:38:35.988Z,4.30
2022-07-29T12:41:04.348Z,0.98
2022-07-29T12:43:35.876Z,3.10
2022-07-29T12:46:15.905Z,5.85
2022-07-29T12:48:44.637Z,5.20
2022-07-29T12:51:13.268Z,2.55
2022-07-29T12:53:40.083Z,1.65
2022-07-29T12:56:20.724Z,3.83
2022-07-29T12:58:53.607Z,1.85
2022-07-29T13:01:21.142Z,1.88
2022-07-29T13:03:58.080Z,6.20
2022-07-29T13:06:32.304Z,4.93
2022-07-29T13:09:04.904Z,3.33
2022-07-29T13:11:39.501Z,2.95
2022-07-29T13:14:10.709Z,1.63
2022-07-29T13:16:59.562Z,3.28
2022-07-29T13:19:34.622Z,2.85
2022-07-29T13:22:01.391Z,2.07
2022-07-29T13:24:27.922Z,1.58
2022-07-29T13:26:56.745Z,3.15
2022-07-29T13:29:23.287Z,1.25
2022-07-29T13:31:49.926Z,3.10
2022-07-29T13:34:16.567Z,5.07
2022-07-29T13:36:43.055Z,3.58
2022-07-29T13:39:09.515Z,3.92
2022-07-29T13:41:36.069Z,4.32
2022-07-29T13:44:06.209Z,4.70
2022-07-29T13:46:32.839Z,3.80
2022-07-29T13:48:59.384Z,4.65
2022-07-29T13:51:25.990Z,1.67
2022-07-29T13:53:52.513Z,4.20
2022-07-29T13:56:19.074Z,8.63
2022-07-29T13:58:45.674Z,5.87
2022-07-29T14:01:12.216Z,5.97
2022-07-29T14:03:45.202Z,2.38
2022-07-29T14:06:12.708Z,4.68
2022-07-29T14:08:39.203Z,4.15
2022-07-29T14:11:05.907Z,6.80
2022-07-29T14:13:32.525Z,2.83
2022-07-29T14:15:59.117Z,1.83
2022-07-29T14:18:25.791Z,3.03
2022-07-29T14:20:52.487Z,6.18
2022-07-29T14:23:20.208Z,3.37
2022-07-29T14:25:47.211Z,2.53
2022-07-29T14:28:17.083Z,4.50
2022-07-29T14:30:44.219Z,2.63
2022-07-29T14:33:10.994Z,2.13
2022-07-29T14:35:37.607Z,2.67
2022-07-29T14:38:04.221Z,5.18
2022-07-29T14:40:38.672Z,6.43
2022-07-29T14:43:05.287Z,2.05
2022-07-29T14:45:32.988Z,5.63
2022-07-29T14:48:01.838Z,1.87
2022-07-29T14:50:31.985Z,4.07
2022-07-29T14:53:03.463Z,3.22
2022-07-29T14:55:30.365Z,3.15
2022-07-29T14:58:07.726Z,1.70
2022-07-29T15:00:37.907Z,3.33
2022-07-29T15:03:05.165Z,2.10
2022-07-29T15:05:32.185Z,3.63
2022-07-29T15:07:59.831Z,3.38
2022-07-29T15:10:29.791Z,2.75
2022-07-29T15:12:56.613Z,4.23
2022-07-29T15:15:23.167Z,7.40
2022-07-29T15:17:49.672Z,3.88
2022-07-29T15:20:18.857Z,3.65
2022-07-29T15:22:45.564Z,1.83
2022-07-29T15:25:12.074Z,3.00
2022-07-29T15:27:38.572Z,3.20
2022-07-29T15:30:08.597Z,2.40
2022-07-29T15:32:35.071Z,3.60
2022-07-29T15:35:01.556Z,2.28
2022-07-29T15:37:29.405Z,3.00
2022-07-29T15:40:16.413Z,1.90
2022-07-29T15:42:42.941Z,4.20
2022-07-29T15:45:09.928Z,4.22
2022-07-29T15:47:36.711Z,3.28
2022-07-29T15:50:03.837Z,5.03
2022-07-29T15:52:31.267Z,2.13
2022-07-29T15:54:57.917Z,3.42
2022-07-29T15:57:24.914Z,2.42
2022-07-29T15:59:51.892Z,2.10
2022-07-29T16:02:18.529Z,4.53
2022-07-29T16:04:45.160Z,2.25
2022-07-29T16:07:11.739Z,5.25
2022-07-29T16:09:39.444Z,1.02
2022-07-29T16:12:14.755Z,2.83
2022-07-29T16:14:43.352Z,2.83
2022-07-29T16:17:14.878Z,0.93
2022-07-29T16:19:43.080Z,1.88
2022-07-29T16:22:09.660Z,2.38
2022-07-29T16:24:39.083Z,4.75
2022-07-29T16:27:05.859Z,4.13
2022-07-29T16:29:32.372Z,2.22
2022-07-29T16:31:58.957Z,1.95
2022-07-29T16:34:25.479Z,4.43
2022-07-29T16:36:51.981Z,2.88
2022-07-29T16:39:18.542Z,1.73
2022-07-29T16:41:45.246Z,4.30
2022-07-29T16:44:11.749Z,1.40
2022-07-29T16:46:44.272Z,4.68
2022-07-29T16:49:10.971Z,3.33
2022-07-29T16:51:37.696Z,3.37
2022-07-29T16:54:14.047Z,4.13
2022-07-29T16:56:40.722Z,3.70
2022-07-29T16:59:10.501Z,2.10
2022-07-29T17:01:38.312Z,3.65
2022-07-29T17:04:07.839Z,2.87
2022-07-29T17:06:38.697Z,3.33
2022-07-29T17:09:06.561Z,1.63
2022-07-29T17:11:51.762Z,2.45
2022-07-29T17:14:24.070Z,2.25
2022-07-29T17:17:00.653Z,1.57
2022-07-29T17:19:29.435Z,4.00
2022-07-29T17:22:04.702Z,3.25
2022-07-29T17:24:33.834Z,0.70
2022-07-29T17:27:00.736Z,2.47
2022-07-29T17:29:27.712Z,2.27
2022-07-29T17:31:54.270Z,3.42
2022-07-29T17:34:21.898Z,3.28
2022-07-29T17:36:48.377Z,3.03
2022-07-29T17:39:14.923Z,2.92
2022-07-29T17:41:41.486Z,3.47
2022-07-29T17:44:09.439Z,1.90
2022-07-29T17:46:36.613Z,2.70
2022-07-29T17:49:03.872Z,1.00
2022-07-29T17:51:30.450Z,2.63
2022-07-29T17:53:59.608Z,3.27
2022-07-29T17:56:27.571Z,4.22
2022-07-29T17:58:57.004Z,4.60
2022-07-29T18:01:24.997Z,4.45
2022-07-29T18:04:00.254Z,2.78
2022-07-29T18:06:28.578Z,2.63
2022-07-29T18:08:57.562Z,1.42
2022-07-29T18:11:24.286Z,3.85
2022-07-29T18:13:51.031Z,2.92
2022-07-29T18:16:18.126Z,2.05
2022-07-29T18:18:45.532Z,2.60
2022-07-29T18:21:38.131Z,8.10
2022-07-29T18:24:06.799Z,5.70
2022-07-29T18:26:45.935Z,2.13
2022-07-29T18:29:19.948Z,3.25
2022-07-29T18:31:46.548Z,4.20
2022-07-29T18:34:13.188Z,2.70
2022-07-29T18:36:39.709Z,2.63
2022-07-29T18:39:06.411Z,2.83
2022-07-29T18:41:33.503Z,2.40
2022-07-29T18:44:00.031Z,3.90
2022-07-29T18:46:26.798Z,4.15
2022-07-29T18:48:53.481Z,4.03
2022-07-29T18:51:21.860Z,4.53
2022-07-29T18:53:48.718Z,1.55
2022-07-29T18:56:15.254Z,3.27
2022-07-29T18:58:41.854Z,4.40
2022-07-29T19:01:08.391Z,3.25
2022-07-29T19:03:35.004Z,2.08
2022-07-29T19:06:01.518Z,3.35
2022-07-29T19:08:28.068Z,2.70
2022-07-29T19:10:54.565Z,3.40
2022-07-29T19:13:21.109Z,2.90
2022-07-29T19:15:48.033Z,4.55
2022-07-29T19:18:14.634Z,5.10
2022-07-29T19:20:42.418Z,2.63
2022-07-29T19:23:09.355Z,3.30
2022-07-29T19:25:35.940Z,3.13
2022-07-29T19:28:02.480Z,3.20
2022-07-29T19:30:29.162Z,3.75
2022-07-29T19:32:55.918Z,7.40
2022-07-29T19:35:32.874Z,3.05
2022-07-29T19:38:01.591Z,3.80
2022-07-29T19:40:30.701Z,4.03
2022-07-29T19:42:57.618Z,3.10
2022-07-29T19:45:25.706Z,2.63
2022-07-29T19:47:54.013Z,2.08
2022-07-29T19:50:23.139Z,3.30
2022-07-29T19:52:49.651Z,1.67
2022-07-29T19:55:16.428Z,2.50
2022-07-29T19:57:46.250Z,3.47
2022-07-29T20:00:21.200Z,2.97
2022-07-29T20:02:48.238Z,1.58
2022-07-29T20:05:14.778Z,9.93
2022-07-29T20:07:41.691Z,2.60
2022-07-29T20:10:09.044Z,2.67
2022-07-29T20:12:38.207Z,2.38
2022-07-29T20:15:10.205Z,4.55
2022-07-29T20:18:06.962Z,2.88
2022-07-29T20:20:33.620Z,4.10
2022-07-29T20:23:01.054Z,5.97
2022-07-29T20:25:29.260Z,2.95
2022-07-29T20:27:55.812Z,2.17
2022-07-29T20:30:22.725Z,2.85
2022-07-29T20:32:50.853Z,5.15
2022-07-29T20:35:19.804Z,3.73
2022-07-29T20:37:55.995Z,4.47
2022-07-29T20:40:26.421Z,3.08
2022-07-29T20:42:54.444Z,3.72
2022-07-29T20:45:21.474Z,5.15
2022-07-29T20:47:48.031Z,2.13
2022-07-29T20:50:14.950Z,2.40
2022-07-29T20:52:43.350Z,3.78
2022-07-29T20:55:10.841Z,6.55
2022-07-29T20:57:39.158Z,2.92
2022-07-29T21:00:07.481Z,2.57
2022-07-29T21:02:34.352Z,4.55
2022-07-29T21:05:01.176Z,5.45
2022-07-29T21:07:36.346Z,3.08
2022-07-29T21:10:03.052Z,3.25
2022-07-29T21:12:30.128Z,1.67
2022-07-29T21:14:57.835Z,3.25
2022-07-29T21:17:24.398Z,6.15
2022-07-29T21:19:52.754Z,4.70
2022-07-29T21:22:21.889Z,3.33
2022-07-29T21:24:49.185Z,3.67
2022-07-29T21:27:34.300Z,4.82
2022-07-29T21:30:00.996Z,5.10
2022-07-29T21:32:30.294Z,4.88
2022-07-29T21:34:57.963Z,3.05
2022-07-29T21:37:24.654Z,3.43
2022-07-29T21:39:51.221Z,5.10
2022-07-29T21:42:17.765Z,7.60
2022-07-29T21:44:44.300Z,5.03
2022-07-29T21:47:11.934Z,5.53
2022-07-29T21:49:38.697Z,12.27
2022-07-29T21:52:05.569Z,5.38
2022-07-29T21:54:34.600Z,7.30
2022-07-29T21:57:01.270Z,4.88
2022-07-29T21:59:27.800Z,5.30
2022-07-29T22:01:58.556Z,6.43
2022-07-29T22:04:25.568Z,5.00
2022-07-29T22:06:52.125Z,5.70
2022-07-29T22:09:18.593Z,4.55
2022-07-29T22:11:45.144Z,6.05
2022-07-29T22:14:12.362Z,5.50
2022-07-29T22:16:38.912Z,5.13
2022-07-29T22:19:05.573Z,5.53
2022-07-29T22:21:32.286Z,5.78
2022-07-29T22:23:58.838Z,4.70
2022-07-29T22:26:25.406Z,3.97
2022-07-29T22:28:51.916Z,3.92
2022-07-29T22:31:18.544Z,4.82
2022-07-29T22:33:45.491Z,3.92
2022-07-29T22:36:11.984Z,5.85
2022-07-29T22:38:40.867Z,4.77
2022-07-29T22:41:07.481Z,3.90
2022-07-29T22:43:34.646Z,4.25
2022-07-29T22:46:01.289Z,3.50
2022-07-29T22:48:27.910Z,6.68
2022-07-29T22:50:54.446Z,2.73
2022-07-29T22:53:21.422Z,4.40
2022-07-29T22:55:47.975Z,4.40
2022-07-29T22:58:14.439Z,3.92
2022-07-29T23:00:41.362Z,2.97
2022-07-29T23:03:07.962Z,4.87
2022-07-29T23:05:34.558Z,4.32
2022-07-29T23:08:01.137Z,4.40
2022-07-29T23:10:27.835Z,4.13
2022-07-29T23:12:54.290Z,5.95
2022-07-29T23:15:20.896Z,3.23
2022-07-29T23:17:47.424Z,4.28
2022-07-29T23:20:15.071Z,5.03
2022-07-29T23:22:41.960Z,4.78
2022-07-29T23:25:08.786Z,5.85
2022-07-29T23:27:35.818Z,6.27
2022-07-29T23:30:02.745Z,7.00
2022-07-29T23:32:29.399Z,4.65
2022-07-29T23:34:57.417Z,4.68
2022-07-29T23:37:23.881Z,5.72
2022-07-29T23:39:53.151Z,7.43
2022-07-29T23:42:19.644Z,5.72
2022-07-29T23:44:46.128Z,6.75
2022-07-29T23:47:13.701Z,3.50
2022-07-29T23:49:40.283Z,7.97
2022-07-29T23:52:06.745Z,6.33
2022-07-29T23:54:33.432Z,6.97
2022-07-29T23:57:00.098Z,5.25
2022-07-29T23:59:29.838Z,3.97
